createdAt,value
2023-04-16T00:00:13.516Z,593.00
2023-04-16T00:01:13.606Z,703.00
2023-04-16T00:02:13.774Z,1128.00
2023-04-16T00:03:13.823Z,1437.00
2023-04-16T00:04:13.798Z,1269.00
2023-04-16T00:05:13.924Z,980.00
2023-04-16T00:06:13.878Z,887.00
2023-04-16T00:07:13.933Z,847.00
2023-04-16T00:08:13.975Z,598.00
2023-04-16T00:09:14.053Z,434.00
2023-04-16T00:10:14.933Z,400.00
2023-04-16T00:11:14.124Z,400.00
2023-04-16T00:12:14.188Z,436.00
2023-04-16T00:13:14.201Z,570.00
2023-04-16T00:14:14.197Z,742.00
2023-04-16T00:15:14.201Z,848.00
2023-04-16T00:16:14.293Z,808.00
2023-04-16T00:17:14.306Z,767.00
2023-04-16T00:18:14.341Z,734.00
2023-04-16T00:19:14.374Z,610.00
2023-04-16T00:20:14.467Z,561.00
2023-04-16T00:21:14.459Z,633.00
2023-04-16T00:22:14.454Z,675.00
2023-04-16T00:23:14.482Z,659.00
2023-04-16T00:24:14.517Z,495.00
2023-04-16T00:25:14.524Z,505.00
2023-04-16T00:26:14.519Z,506.00
2023-04-16T00:27:14.543Z,532.00
2023-04-16T00:28:14.571Z,515.00
2023-04-16T00:29:14.561Z,597.00
2023-04-16T00:30:14.567Z,515.00
2023-04-16T00:31:14.639Z,466.00
2023-04-16T00:32:14.513Z,502.00
2023-04-16T00:33:14.593Z,503.00
2023-04-16T00:34:14.617Z,458.00
2023-04-16T00:35:14.642Z,496.00
2023-04-16T00:36:14.624Z,501.00
2023-04-16T00:37:14.657Z,474.00
2023-04-16T00:38:14.698Z,400.00
2023-04-16T00:39:14.841Z,400.00
2023-04-16T00:40:14.718Z,400.00
2023-04-16T00:41:14.712Z,489.00
2023-04-16T00:42:14.810Z,531.00
2023-04-16T00:43:14.737Z,502.00
2023-04-16T00:44:14.761Z,576.00
2023-04-16T00:45:14.838Z,505.00
2023-04-16T00:46:14.953Z,699.00
2023-04-16T00:47:15.108Z,910.00
2023-04-16T00:48:15.045Z,1090.00
2023-04-16T00:49:15.041Z,1107.00
2023-04-16T00:50:15.142Z,1426.00
2023-04-16T00:51:15.240Z,1626.00
2023-04-16T00:52:15.258Z,1852.00
2023-04-16T00:53:15.326Z,1545.00
2023-04-16T00:54:15.368Z,1186.00
2023-04-16T00:55:15.444Z,804.00
2023-04-16T00:56:15.918Z,709.00
2023-04-16T00:57:15.581Z,724.00
2023-04-16T00:58:15.605Z,661.00
2023-04-16T00:59:15.620Z,784.00
2023-04-16T01:00:15.630Z,1003.00
2023-04-16T01:01:15.661Z,1011.00
2023-04-16T01:02:15.726Z,1174.00
2023-04-16T01:03:15.822Z,1531.00
2023-04-16T01:04:15.781Z,1785.00
2023-04-16T01:05:15.686Z,1807.00
2023-04-16T01:06:15.789Z,1839.00
2023-04-16T01:07:15.800Z,1824.00
2023-04-16T01:08:15.852Z,1395.00
2023-04-16T01:09:15.915Z,1172.00
2023-04-16T01:10:15.950Z,988.00
2023-04-16T01:11:15.958Z,737.00
2023-04-16T01:12:15.978Z,665.00
2023-04-16T01:13:15.987Z,1154.00
2023-04-16T01:14:16.013Z,1332.00
2023-04-16T01:15:16.057Z,1245.00
2023-04-16T01:16:16.123Z,1232.00
2023-04-16T01:17:16.076Z,1132.00
2023-04-16T01:18:16.073Z,918.00
2023-04-16T01:19:16.148Z,705.00
2023-04-16T01:20:16.168Z,603.00
2023-04-16T01:21:16.200Z,491.00
2023-04-16T01:22:16.242Z,494.00
2023-04-16T01:23:16.212Z,566.00
2023-04-16T01:24:16.229Z,617.00
2023-04-16T01:25:16.247Z,777.00
2023-04-16T01:26:16.287Z,1017.00
2023-04-16T01:27:16.280Z,1009.00
2023-04-16T01:28:16.202Z,974.00
2023-04-16T01:29:16.278Z,1010.00
2023-04-16T01:30:16.321Z,1264.00
2023-04-16T01:31:16.425Z,1387.00
2023-04-16T01:32:16.530Z,1668.00
2023-04-16T01:33:16.507Z,1659.00
2023-04-16T01:34:16.500Z,1430.00
2023-04-16T01:35:16.535Z,1230.00
2023-04-16T01:36:16.583Z,1081.00
2023-04-16T01:37:16.570Z,1078.00
2023-04-16T01:38:16.602Z,899.00
2023-04-16T01:39:16.639Z,864.00
2023-04-16T01:40:16.632Z,1045.00
2023-04-16T01:41:16.586Z,1578.00
2023-04-16T01:42:16.601Z,2121.00
2023-04-16T01:43:16.676Z,2262.00
2023-04-16T01:44:16.677Z,2040.00
2023-04-16T01:45:16.642Z,2266.00
2023-04-16T01:46:16.686Z,2524.00
2023-04-16T01:47:16.681Z,2598.00
2023-04-16T01:48:16.727Z,2552.00
2023-04-16T01:49:16.726Z,2689.00
2023-04-16T01:50:16.798Z,2195.00
2023-04-16T01:51:16.805Z,2495.00
2023-04-16T01:52:16.844Z,2674.00
2023-04-16T01:53:16.922Z,2695.00
2023-04-16T01:54:16.953Z,2795.00
2023-04-16T01:55:16.977Z,2745.00
2023-04-16T01:56:16.988Z,2798.00
2023-04-16T01:57:16.987Z,2859.00
2023-04-16T01:58:17.050Z,2811.00
2023-04-16T01:59:17.133Z,2515.00
2023-04-16T02:00:17.208Z,2255.00
2023-04-16T02:01:17.249Z,1653.00
2023-04-16T02:02:17.424Z,1477.00
2023-04-16T02:03:17.510Z,1830.00
2023-04-16T02:04:17.436Z,1763.00
2023-04-16T02:05:17.516Z,1863.00
2023-04-16T02:06:17.515Z,1919.00
2023-04-16T02:07:17.502Z,1858.00
2023-04-16T02:08:17.492Z,1855.00
2023-04-16T02:09:17.510Z,1522.00
2023-04-16T02:10:17.543Z,1828.00
2023-04-16T02:11:17.535Z,1841.00
2023-04-16T02:12:17.603Z,1970.00
2023-04-16T02:13:17.710Z,2203.00
2023-04-16T02:14:17.823Z,2232.00
2023-04-16T02:15:17.930Z,2391.00
2023-04-16T02:16:18.018Z,2400.00
2023-04-16T02:17:17.957Z,2348.00
2023-04-16T02:18:18.013Z,2275.00
2023-04-16T02:19:18.060Z,1896.00
2023-04-16T02:20:18.164Z,1676.00
2023-04-16T02:21:18.164Z,1567.00
2023-04-16T02:22:18.229Z,1314.00
2023-04-16T02:23:18.308Z,1093.00
2023-04-16T02:24:18.363Z,854.00
2023-04-16T02:25:18.397Z,613.00
2023-04-16T02:26:18.454Z,548.00
2023-04-16T02:27:18.455Z,501.00
2023-04-16T02:28:18.474Z,634.00
2023-04-16T02:29:18.526Z,730.00
2023-04-16T02:30:18.600Z,797.00
2023-04-16T02:31:18.712Z,1109.00
2023-04-16T02:32:18.720Z,1150.00
2023-04-16T02:33:18.791Z,1247.00
2023-04-16T02:34:18.829Z,1617.00
2023-04-16T02:35:18.901Z,1978.00
2023-04-16T02:36:18.923Z,1961.00
2023-04-16T02:37:18.996Z,1981.00
2023-04-16T02:38:18.974Z,1413.00
2023-04-16T02:39:18.968Z,1088.00
2023-04-16T02:40:18.998Z,1103.00
2023-04-16T02:41:18.971Z,1036.00
2023-04-16T02:42:19.037Z,1035.00
2023-04-16T02:43:18.998Z,1135.00
2023-04-16T02:44:18.944Z,1143.00
2023-04-16T02:45:18.973Z,1280.00
2023-04-16T02:46:19.080Z,1423.00
2023-04-16T02:47:18.997Z,1454.00
2023-04-16T02:48:19.009Z,1420.00
2023-04-16T02:49:19.082Z,1444.00
2023-04-16T02:50:19.191Z,1347.00
2023-04-16T02:51:19.191Z,999.00
2023-04-16T02:52:19.210Z,693.00
2023-04-16T02:53:19.250Z,1171.00
2023-04-16T02:54:19.258Z,1169.00
2023-04-16T02:55:19.385Z,1276.00
2023-04-16T02:56:19.393Z,1308.00
2023-04-16T02:57:19.406Z,1300.00
2023-04-16T02:58:19.492Z,1368.00
2023-04-16T02:59:19.601Z,1228.00
2023-04-16T03:00:19.623Z,1473.00
2023-04-16T03:01:19.661Z,1586.00
2023-04-16T03:02:19.675Z,1542.00
2023-04-16T03:03:19.716Z,1586.00
2023-04-16T03:04:19.736Z,1638.00
2023-04-16T03:05:19.682Z,1566.00
2023-04-16T03:06:19.667Z,1531.00
2023-04-16T03:07:19.718Z,1515.00
2023-04-16T03:08:19.706Z,1488.00
2023-04-16T03:09:19.737Z,1387.00
2023-04-16T03:10:19.746Z,1617.00
2023-04-16T03:11:19.766Z,1824.00
2023-04-16T03:12:19.771Z,1867.00
2023-04-16T03:13:19.798Z,2002.00
2023-04-16T03:14:19.820Z,2065.00
2023-04-16T03:15:19.852Z,2042.00
2023-04-16T03:16:20.221Z,2211.00
2023-04-16T03:17:19.932Z,2096.00
2023-04-16T03:18:20.028Z,1920.00
2023-04-16T03:19:20.114Z,1708.00
2023-04-16T03:20:20.312Z,1706.00
2023-04-16T03:21:20.283Z,1730.00
2023-04-16T03:22:20.294Z,1746.00
2023-04-16T03:23:20.284Z,1586.00
2023-04-16T03:24:20.372Z,1178.00
2023-04-16T03:25:20.326Z,1008.00
2023-04-16T03:26:20.310Z,1198.00
2023-04-16T03:27:20.366Z,1110.00
2023-04-16T03:28:20.418Z,546.00
2023-04-16T03:29:20.368Z,529.00
2023-04-16T03:30:20.410Z,514.00
2023-04-16T03:31:20.431Z,461.00
2023-04-16T03:32:20.554Z,463.00
2023-04-16T03:33:20.466Z,531.00
2023-04-16T03:34:20.497Z,749.00
2023-04-16T03:35:20.511Z,784.00
2023-04-16T03:36:20.542Z,771.00
2023-04-16T03:37:20.575Z,823.00
2023-04-16T03:38:20.538Z,1029.00
2023-04-16T03:39:20.628Z,1233.00
2023-04-16T03:40:20.591Z,1468.00
2023-04-16T03:41:20.579Z,1533.00
2023-04-16T03:42:20.606Z,1736.00
2023-04-16T03:43:20.682Z,1935.00
2023-04-16T03:44:20.756Z,2070.00
2023-04-16T03:45:20.820Z,2297.00
2023-04-16T03:46:21.032Z,2440.00
2023-04-16T03:47:20.973Z,2701.00
2023-04-16T03:48:20.966Z,2937.00
2023-04-16T03:49:21.126Z,3112.00
2023-04-16T03:50:21.174Z,3079.00
2023-04-16T03:51:21.174Z,2941.00
2023-04-16T03:52:21.180Z,2795.00
2023-04-16T03:53:21.216Z,2672.00
2023-04-16T03:54:22.742Z,2640.00
2023-04-16T03:55:21.188Z,2771.00
2023-04-16T03:56:21.216Z,2816.00
2023-04-16T03:57:21.197Z,2782.00
2023-04-16T03:58:21.199Z,2711.00
2023-04-16T03:59:21.255Z,2559.00
2023-04-16T04:00:21.574Z,2662.00
2023-04-16T04:01:21.210Z,2827.00
2023-04-16T04:02:21.393Z,3119.00
2023-04-16T04:03:22.309Z,2968.00
2023-04-16T04:04:21.341Z,3053.00
2023-04-16T04:05:21.306Z,3002.00
2023-04-16T04:06:21.333Z,3253.00
2023-04-16T04:07:21.380Z,3263.00
2023-04-16T04:08:21.426Z,3659.00
2023-04-16T04:09:21.500Z,3928.00
2023-04-16T04:10:21.510Z,3968.00
2023-04-16T04:11:21.560Z,4068.00
2023-04-16T04:12:21.596Z,3744.00
2023-04-16T04:13:21.643Z,3402.00
2023-04-16T04:14:21.701Z,3258.00
2023-04-16T04:15:21.751Z,3028.00
2023-04-16T04:16:21.876Z,2828.00
2023-04-16T04:17:21.765Z,2662.00
2023-04-16T04:18:21.773Z,2467.00
2023-04-16T04:19:21.783Z,2271.00
2023-04-16T04:20:21.754Z,1958.00
2023-04-16T04:21:21.773Z,1598.00
2023-04-16T04:22:21.776Z,1471.00
2023-04-16T04:23:21.782Z,1552.00
2023-04-16T04:24:21.816Z,1761.00
2023-04-16T04:25:21.840Z,1980.00
2023-04-16T04:26:21.882Z,1997.00
2023-04-16T04:27:21.817Z,2095.00
2023-04-16T04:28:21.862Z,2058.00
2023-04-16T04:29:21.871Z,2162.00
2023-04-16T04:30:21.921Z,2230.00
2023-04-16T04:31:21.892Z,2290.00
2023-04-16T04:32:21.997Z,2522.00
2023-04-16T04:33:21.976Z,2866.00
2023-04-16T04:34:22.023Z,2851.00
2023-04-16T04:35:22.056Z,3925.00
2023-04-16T04:36:22.005Z,4081.00
2023-04-16T04:37:22.068Z,3942.00
2023-04-16T04:38:22.109Z,3626.00
2023-04-16T04:39:22.094Z,3340.00
2023-04-16T04:40:22.205Z,2917.00
2023-04-16T04:41:22.099Z,2931.00
2023-04-16T04:42:22.115Z,2984.00
2023-04-16T04:43:22.059Z,2780.00
2023-04-16T04:44:22.060Z,2692.00
2023-04-16T04:45:22.070Z,2435.00
2023-04-16T04:46:22.271Z,2003.00
2023-04-16T04:47:22.151Z,1846.00
2023-04-16T04:48:22.180Z,1962.00
2023-04-16T04:49:22.155Z,2045.00
2023-04-16T04:50:22.197Z,2102.00
2023-04-16T04:51:22.217Z,1982.00
2023-04-16T04:52:22.183Z,2031.00
2023-04-16T04:53:22.240Z,2268.00
2023-04-16T04:54:22.321Z,2376.00
2023-04-16T04:55:22.395Z,2321.00
2023-04-16T04:56:22.412Z,1983.00
2023-04-16T04:57:22.419Z,1953.00
2023-04-16T04:58:22.426Z,1740.00
2023-04-16T04:59:22.460Z,1655.00
2023-04-16T05:00:22.512Z,1525.00
2023-04-16T05:01:22.488Z,1710.00
2023-04-16T05:02:22.612Z,1751.00
2023-04-16T05:03:22.688Z,1796.00
2023-04-16T05:04:22.500Z,1908.00
2023-04-16T05:05:22.545Z,1857.00
2023-04-16T05:06:23.476Z,1882.00
2023-04-16T05:07:22.503Z,1992.00
2023-04-16T05:08:22.503Z,2086.00
2023-04-16T05:09:22.523Z,1462.00
2023-04-16T05:10:22.511Z,917.00
2023-04-16T05:11:22.537Z,752.00
2023-04-16T05:12:22.564Z,827.00
2023-04-16T05:13:22.554Z,731.00
2023-04-16T05:14:22.601Z,612.00
2023-04-16T05:15:22.619Z,620.00
2023-04-16T05:16:22.738Z,757.00
2023-04-16T05:17:22.722Z,964.00
2023-04-16T05:18:22.732Z,1300.00
2023-04-16T05:19:22.786Z,1439.00
2023-04-16T05:20:22.876Z,1443.00
2023-04-16T05:21:22.884Z,1373.00
2023-04-16T05:22:22.946Z,1348.00
2023-04-16T05:23:23.000Z,1401.00
2023-04-16T05:24:23.063Z,1415.00
2023-04-16T05:25:23.161Z,1411.00
2023-04-16T05:26:23.186Z,1515.00
2023-04-16T05:27:23.249Z,1491.00
2023-04-16T05:28:23.305Z,1139.00
2023-04-16T05:29:23.343Z,1168.00
2023-04-16T05:30:23.395Z,1173.00
2023-04-16T05:31:23.483Z,1533.00
2023-04-16T05:32:23.521Z,1798.00
2023-04-16T05:33:24.056Z,2129.00
2023-04-16T05:34:23.607Z,2275.00
2023-04-16T05:35:23.638Z,2127.00
2023-04-16T05:36:23.645Z,1979.00
2023-04-16T05:37:23.727Z,2315.00
2023-04-16T05:38:23.785Z,2820.00
2023-04-16T05:39:23.962Z,3037.00
2023-04-16T05:40:23.923Z,3178.00
2023-04-16T05:41:23.952Z,3721.00
2023-04-16T05:42:24.052Z,3742.00
2023-04-16T05:43:24.050Z,3873.00
2023-04-16T05:44:24.100Z,3987.00
2023-04-16T05:45:25.127Z,3785.00
2023-04-16T05:46:24.147Z,3502.00
2023-04-16T05:47:24.159Z,3407.00
2023-04-16T05:48:24.166Z,3405.00
2023-04-16T05:49:24.180Z,3381.00
2023-04-16T05:50:24.214Z,3394.00
2023-04-16T05:51:24.216Z,3348.00
2023-04-16T05:52:24.241Z,3409.00
2023-04-16T05:53:24.258Z,3671.00
2023-04-16T05:54:24.327Z,3304.00
2023-04-16T05:55:24.381Z,3149.00
2023-04-16T05:56:24.431Z,2993.00
2023-04-16T05:57:24.481Z,2833.00
2023-04-16T05:58:24.560Z,2847.00
2023-04-16T05:59:24.592Z,2840.00
2023-04-16T06:00:24.592Z,3076.00
2023-04-16T06:01:24.629Z,3007.00
2023-04-16T06:02:24.797Z,2799.00
2023-04-16T06:03:24.708Z,2495.00
2023-04-16T06:04:24.658Z,2245.00
2023-04-16T06:05:24.742Z,1972.00
2023-04-16T06:06:24.775Z,2041.00
2023-04-16T06:07:24.776Z,2307.00
2023-04-16T06:08:24.861Z,2826.00
2023-04-16T06:09:24.902Z,2762.00
2023-04-16T06:10:24.939Z,2600.00
2023-04-16T06:11:24.937Z,2672.00
2023-04-16T06:12:25.066Z,2854.00
2023-04-16T06:13:25.069Z,3019.00
2023-04-16T06:14:25.139Z,3148.00
2023-04-16T06:15:25.143Z,2842.00
2023-04-16T06:16:25.294Z,2748.00
2023-04-16T06:17:25.306Z,2511.00
2023-04-16T06:18:25.283Z,2407.00
2023-04-16T06:19:25.332Z,2253.00
2023-04-16T06:20:25.426Z,2293.00
2023-04-16T06:21:25.348Z,2423.00
2023-04-16T06:22:25.441Z,2533.00
2023-04-16T06:23:25.460Z,2675.00
2023-04-16T06:24:25.551Z,2496.00
2023-04-16T06:25:25.588Z,2518.00
2023-04-16T06:26:25.645Z,2256.00
2023-04-16T06:27:25.726Z,2294.00
2023-04-16T06:28:25.796Z,2340.00
2023-04-16T06:29:37.074Z,1795.00
2023-04-16T06:30:26.798Z,1622.00
2023-04-16T06:31:25.792Z,1614.00
2023-04-16T06:32:25.788Z,1735.00
2023-04-16T06:33:25.778Z,1798.00
2023-04-16T06:34:25.783Z,1768.00
2023-04-16T06:35:25.776Z,1466.00
2023-04-16T06:36:25.753Z,1319.00
2023-04-16T06:37:25.707Z,1280.00
2023-04-16T06:38:25.719Z,1574.00
2023-04-16T06:39:25.984Z,1863.00
2023-04-16T06:40:25.740Z,2415.00
2023-04-16T06:41:25.746Z,2671.00
2023-04-16T06:42:25.698Z,2871.00
2023-04-16T06:43:25.717Z,2990.00
2023-04-16T06:44:25.669Z,2693.00
2023-04-16T06:45:25.733Z,2308.00
2023-04-16T06:46:25.796Z,2100.00
2023-04-16T06:47:25.851Z,2514.00
2023-04-16T06:48:25.791Z,2645.00
2023-04-16T06:49:25.798Z,2868.00
2023-04-16T06:50:25.898Z,2895.00
2023-04-16T06:51:25.912Z,2930.00
2023-04-16T06:52:25.920Z,3191.00
2023-04-16T06:53:26.037Z,3594.00
2023-04-16T06:54:25.958Z,3596.00
2023-04-16T06:55:25.985Z,3308.00
2023-04-16T06:56:26.004Z,3251.00
2023-04-16T06:57:26.123Z,3347.00
2023-04-16T06:58:26.147Z,3344.00
2023-04-16T06:59:26.199Z,3387.00
2023-04-16T07:00:26.249Z,3414.00
2023-04-16T07:01:26.283Z,3453.00
2023-04-16T07:02:26.398Z,3368.00
2023-04-16T07:03:26.489Z,3302.00
2023-04-16T07:04:26.418Z,3327.00
2023-04-16T07:05:26.484Z,3062.00
2023-04-16T07:06:26.417Z,2705.00
2023-04-16T07:07:26.446Z,2485.00
2023-04-16T07:08:26.465Z,2551.00
2023-04-16T07:09:26.502Z,2479.00
2023-04-16T07:10:26.512Z,2168.00
2023-04-16T07:11:26.577Z,2030.00
2023-04-16T07:12:26.633Z,2025.00
2023-04-16T07:13:26.760Z,1944.00
2023-04-16T07:14:26.742Z,1866.00
2023-04-16T07:15:26.784Z,1634.00
2023-04-16T07:16:26.816Z,1733.00
2023-04-16T07:17:26.919Z,2031.00
2023-04-16T07:18:26.934Z,2558.00
2023-04-16T07:19:26.890Z,2624.00
2023-04-16T07:20:26.942Z,2544.00
2023-04-16T07:21:26.972Z,2617.00
2023-04-16T07:22:26.949Z,2851.00
2023-04-16T07:23:26.975Z,2753.00
2023-04-16T07:24:27.002Z,2911.00
2023-04-16T07:25:27.032Z,3444.00
2023-04-16T07:26:27.029Z,3657.00
2023-04-16T07:27:27.043Z,3082.00
2023-04-16T07:28:27.052Z,2772.00
2023-04-16T07:29:27.017Z,2611.00
2023-04-16T07:30:27.057Z,2201.00
2023-04-16T07:31:27.100Z,1432.00
2023-04-16T07:32:27.213Z,811.00
2023-04-16T07:33:27.173Z,651.00
2023-04-16T07:34:27.199Z,558.00
2023-04-16T07:35:27.246Z,1128.00
2023-04-16T07:36:27.247Z,1233.00
2023-04-16T07:37:27.242Z,1456.00
2023-04-16T07:38:27.271Z,1591.00
2023-04-16T07:39:27.292Z,1865.00
2023-04-16T07:40:27.365Z,2153.00
2023-04-16T07:41:27.352Z,1890.00
2023-04-16T07:42:27.446Z,1396.00
2023-04-16T07:43:27.537Z,1030.00
2023-04-16T07:44:27.593Z,825.00
2023-04-16T07:45:27.663Z,663.00
2023-04-16T07:46:30.723Z,1027.00
2023-04-16T07:47:28.694Z,1032.00
2023-04-16T07:48:27.650Z,1087.00
2023-04-16T07:49:27.582Z,1105.00
2023-04-16T07:50:27.673Z,944.00
2023-04-16T07:51:27.648Z,1122.00
2023-04-16T07:52:27.608Z,1408.00
2023-04-16T07:53:27.639Z,2271.00
2023-04-16T07:54:29.071Z,1936.00
2023-04-16T07:55:27.606Z,1624.00
2023-04-16T07:56:27.575Z,1547.00
2023-04-16T07:57:27.898Z,1674.00
2023-04-16T07:58:27.568Z,1119.00
2023-04-16T07:59:27.897Z,901.00
2023-04-16T08:00:27.691Z,895.00
2023-04-16T08:01:27.722Z,1237.00
2023-04-16T08:02:27.848Z,1556.00
2023-04-16T08:03:28.086Z,1228.00
2023-04-16T08:04:28.032Z,625.00
2023-04-16T08:05:27.899Z,613.00
2023-04-16T08:06:27.904Z,510.00
2023-04-16T08:07:27.891Z,432.00
2023-04-16T08:08:27.904Z,540.00
2023-04-16T08:09:27.913Z,569.00
2023-04-16T08:10:27.931Z,575.00
2023-04-16T08:11:27.937Z,598.00
2023-04-16T08:12:27.898Z,888.00
2023-04-16T08:13:27.942Z,840.00
2023-04-16T08:14:27.964Z,752.00
2023-04-16T08:15:28.065Z,819.00
2023-04-16T08:16:28.138Z,641.00
2023-04-16T08:17:28.063Z,558.00
2023-04-16T08:18:28.130Z,615.00
2023-04-16T08:19:28.198Z,953.00
2023-04-16T08:20:28.293Z,1512.00
2023-04-16T08:21:28.257Z,1279.00
2023-04-16T08:22:28.317Z,1561.00
2023-04-16T08:23:28.395Z,1938.00
2023-04-16T08:24:28.348Z,2179.00
2023-04-16T08:25:28.387Z,2262.00
2023-04-16T08:26:28.386Z,2452.00
2023-04-16T08:27:28.360Z,2014.00
2023-04-16T08:28:28.366Z,1718.00
2023-04-16T08:29:28.415Z,1638.00
2023-04-16T08:30:28.390Z,1650.00
2023-04-16T08:31:28.426Z,1620.00
2023-04-16T08:32:28.418Z,1616.00
2023-04-16T08:33:28.403Z,2361.00
2023-04-16T08:34:28.392Z,2133.00
2023-04-16T08:35:28.477Z,1673.00
2023-04-16T08:36:28.433Z,1728.00
2023-04-16T08:37:28.475Z,2731.00
2023-04-16T08:38:28.493Z,2636.00
2023-04-16T08:39:28.593Z,2446.00
2023-04-16T08:40:28.554Z,1931.00
2023-04-16T08:41:28.522Z,1834.00
2023-04-16T08:42:29.168Z,1420.00
2023-04-16T08:43:28.555Z,1125.00
2023-04-16T08:44:28.580Z,1033.00
2023-04-16T08:45:28.615Z,816.00
2023-04-16T08:46:28.673Z,625.00
2023-04-16T08:47:28.684Z,931.00
2023-04-16T08:48:28.705Z,1294.00
2023-04-16T08:49:28.796Z,1855.00
2023-04-16T08:50:28.819Z,1967.00
2023-04-16T08:51:28.875Z,2110.00
2023-04-16T08:52:28.946Z,2410.00
2023-04-16T08:53:29.341Z,2859.00
2023-04-16T08:54:29.054Z,1961.00
2023-04-16T08:55:29.042Z,1578.00
2023-04-16T08:56:29.069Z,1368.00
2023-04-16T08:57:29.099Z,1411.00
2023-04-16T08:58:29.137Z,1328.00
2023-04-16T08:59:29.137Z,1785.00
2023-04-16T09:00:29.140Z,2230.00
2023-04-16T09:01:29.212Z,1826.00
2023-04-16T09:02:29.337Z,1703.00
2023-04-16T09:03:29.358Z,1493.00
2023-04-16T09:04:29.535Z,1124.00
2023-04-16T09:05:29.327Z,1001.00
2023-04-16T09:06:29.286Z,662.00
2023-04-16T09:07:29.309Z,625.00
2023-04-16T09:08:29.358Z,697.00
2023-04-16T09:09:29.407Z,665.00
2023-04-16T09:10:29.427Z,585.00
2023-04-16T09:11:29.464Z,488.00
2023-04-16T09:12:29.433Z,529.00
2023-04-16T09:13:29.436Z,602.00
2023-04-16T09:14:29.470Z,730.00
2023-04-16T09:15:29.506Z,861.00
2023-04-16T09:16:29.513Z,597.00
2023-04-16T09:17:29.533Z,1034.00
2023-04-16T09:18:29.477Z,1325.00
2023-04-16T09:19:29.471Z,1343.00
2023-04-16T09:20:29.545Z,1541.00
2023-04-16T09:21:29.560Z,1686.00
2023-04-16T09:22:29.552Z,1821.00
2023-04-16T09:23:29.648Z,2182.00
2023-04-16T09:24:29.622Z,2656.00
2023-04-16T09:25:29.727Z,2460.00
2023-04-16T09:26:29.653Z,1711.00
2023-04-16T09:27:29.664Z,1262.00
2023-04-16T09:28:29.683Z,1557.00
2023-04-16T09:29:29.702Z,1027.00
2023-04-16T09:30:29.721Z,750.00
2023-04-16T09:31:29.751Z,789.00
2023-04-16T09:32:29.789Z,547.00
2023-04-16T09:33:29.705Z,500.00
2023-04-16T09:34:29.740Z,501.00
2023-04-16T09:35:29.797Z,623.00
2023-04-16T09:36:29.761Z,653.00
2023-04-16T09:37:29.855Z,590.00
2023-04-16T09:38:29.775Z,473.00
2023-04-16T09:39:29.793Z,535.00
2023-04-16T09:40:29.796Z,638.00
2023-04-16T09:41:29.853Z,498.00
2023-04-16T09:42:29.864Z,455.00
2023-04-16T09:43:29.850Z,570.00
2023-04-16T09:44:29.860Z,606.00
2023-04-16T09:45:29.905Z,773.00
2023-04-16T09:46:29.892Z,1203.00
2023-04-16T09:47:29.874Z,1240.00
2023-04-16T09:48:29.950Z,1650.00
2023-04-16T09:49:29.927Z,2235.00
2023-04-16T09:50:30.053Z,2625.00
2023-04-16T09:51:30.074Z,2251.00
2023-04-16T09:52:30.159Z,1666.00
2023-04-16T09:53:30.251Z,1734.00
2023-04-16T09:54:30.248Z,2373.00
2023-04-16T09:55:30.285Z,2568.00
2023-04-16T09:56:30.284Z,1132.00
2023-04-16T09:57:30.293Z,718.00
2023-04-16T09:58:30.289Z,611.00
2023-04-16T09:59:30.287Z,428.00
2023-04-16T10:00:30.293Z,400.00
2023-04-16T10:01:30.342Z,438.00
2023-04-16T10:02:30.433Z,476.00
2023-04-16T10:03:30.662Z,542.00
2023-04-16T10:04:30.496Z,448.00
2023-04-16T10:05:30.419Z,400.00
2023-04-16T10:06:30.431Z,446.00
2023-04-16T10:07:30.545Z,531.00
2023-04-16T10:08:30.408Z,963.00
2023-04-16T10:09:30.403Z,1055.00
2023-04-16T10:10:30.526Z,1586.00
2023-04-16T10:11:30.407Z,1240.00
2023-04-16T10:12:30.467Z,1372.00
2023-04-16T10:13:30.532Z,1846.00
2023-04-16T10:14:30.543Z,1635.00
2023-04-16T10:15:30.607Z,1753.00
2023-04-16T10:16:30.623Z,2083.00
2023-04-16T10:17:30.655Z,2335.00
2023-04-16T10:18:30.605Z,2649.00
2023-04-16T10:19:30.630Z,3576.00
2023-04-16T10:20:30.730Z,3089.00
2023-04-16T10:21:30.621Z,3125.00
2023-04-16T10:22:30.645Z,3203.00
2023-04-16T10:23:30.698Z,3296.00
2023-04-16T10:24:30.764Z,2961.00
2023-04-16T10:25:30.785Z,2986.00
2023-04-16T10:26:30.774Z,3037.00
2023-04-16T10:27:30.872Z,3007.00
2023-04-16T10:28:30.788Z,3141.00
2023-04-16T10:29:30.806Z,3093.00
2023-04-16T10:30:30.797Z,3245.00
2023-04-16T10:31:30.850Z,3614.00
2023-04-16T10:32:30.838Z,3782.00
2023-04-16T10:33:30.879Z,3740.00
2023-04-16T10:34:30.846Z,2787.00
2023-04-16T10:35:32.030Z,2505.00
2023-04-16T10:36:30.879Z,1966.00
2023-04-16T10:37:30.906Z,2140.00
2023-04-16T10:38:30.997Z,2472.00
2023-04-16T10:39:31.040Z,2845.00
2023-04-16T10:40:31.099Z,3132.00
2023-04-16T10:41:31.078Z,2805.00
2023-04-16T10:42:31.137Z,2362.00
2023-04-16T10:43:31.175Z,2160.00
2023-04-16T10:44:31.226Z,1818.00
2023-04-16T10:45:31.343Z,1891.00
2023-04-16T10:46:31.422Z,1990.00
2023-04-16T10:47:31.369Z,1883.00
2023-04-16T10:48:42.338Z,1658.00
2023-04-16T10:49:32.391Z,1336.00
2023-04-16T10:50:31.428Z,1250.00
2023-04-16T10:51:31.425Z,1006.00
2023-04-16T10:52:31.363Z,938.00
2023-04-16T10:53:31.373Z,647.00
2023-04-16T10:54:31.377Z,649.00
2023-04-16T10:55:31.402Z,748.00
2023-04-16T10:56:31.334Z,1064.00
2023-04-16T10:57:32.131Z,1011.00
2023-04-16T10:58:31.361Z,1258.00
2023-04-16T10:59:31.343Z,1404.00
2023-04-16T11:00:31.656Z,1355.00
2023-04-16T11:01:31.409Z,1457.00
2023-04-16T11:02:31.544Z,1390.00
2023-04-16T11:03:31.481Z,1500.00
2023-04-16T11:04:31.483Z,1386.00
2023-04-16T11:05:31.588Z,1276.00
2023-04-16T11:06:31.583Z,1355.00
2023-04-16T11:07:31.626Z,1209.00
2023-04-16T11:08:32.056Z,1163.00
2023-04-16T11:09:31.697Z,951.00
2023-04-16T11:10:31.812Z,1010.00
2023-04-16T11:11:31.796Z,822.00
2023-04-16T11:12:31.803Z,639.00
2023-04-16T11:13:31.841Z,584.00
2023-04-16T11:14:31.832Z,613.00
2023-04-16T11:15:31.969Z,643.00
2023-04-16T11:16:31.950Z,656.00
2023-04-16T11:17:32.027Z,803.00
2023-04-16T11:18:32.095Z,1030.00
2023-04-16T11:19:32.154Z,709.00
2023-04-16T11:20:32.161Z,804.00
2023-04-16T11:21:32.230Z,841.00
2023-04-16T11:22:32.260Z,1736.00
2023-04-16T11:23:32.335Z,1810.00
2023-04-16T11:24:32.365Z,1641.00
2023-04-16T11:25:32.441Z,1221.00
2023-04-16T11:26:32.737Z,2162.00
2023-04-16T11:27:32.410Z,1511.00
2023-04-16T11:28:32.389Z,1715.00
2023-04-16T11:29:32.384Z,1442.00
2023-04-16T11:30:32.410Z,1731.00
2023-04-16T11:31:32.496Z,1725.00
2023-04-16T11:32:32.494Z,1491.00
2023-04-16T11:33:32.438Z,1467.00
2023-04-16T11:34:32.435Z,1562.00
2023-04-16T11:35:32.450Z,1179.00
2023-04-16T11:36:32.515Z,790.00
2023-04-16T11:37:32.549Z,859.00
2023-04-16T11:38:32.591Z,600.00
2023-04-16T11:39:32.648Z,573.00
2023-04-16T11:40:32.748Z,632.00
2023-04-16T11:41:32.764Z,788.00
2023-04-16T11:42:32.823Z,1137.00
2023-04-16T11:43:32.792Z,1053.00
2023-04-16T11:44:32.795Z,1266.00
2023-04-16T11:45:32.810Z,1033.00
2023-04-16T11:46:32.845Z,794.00
2023-04-16T11:47:32.927Z,578.00
2023-04-16T11:48:32.917Z,699.00
2023-04-16T11:49:33.005Z,952.00
2023-04-16T11:50:33.034Z,874.00
2023-04-16T11:51:33.092Z,917.00
2023-04-16T11:52:33.130Z,973.00
2023-04-16T11:53:33.149Z,756.00
2023-04-16T11:54:33.218Z,796.00
2023-04-16T11:55:33.251Z,628.00
2023-04-16T11:56:33.324Z,493.00
2023-04-16T11:57:33.368Z,470.00
2023-04-16T11:58:33.298Z,632.00
2023-04-16T11:59:33.368Z,641.00
2023-04-16T12:00:33.433Z,484.00
2023-04-16T12:01:33.439Z,427.00
2023-04-16T12:02:33.632Z,450.00
2023-04-16T12:03:33.677Z,1709.00
2023-04-16T12:04:33.670Z,1954.00
2023-04-16T12:05:33.774Z,1540.00
2023-04-16T12:06:33.600Z,1447.00
2023-04-16T12:07:33.657Z,1176.00
2023-04-16T12:08:33.741Z,995.00
2023-04-16T12:09:33.792Z,1056.00
2023-04-16T12:10:33.848Z,1272.00
2023-04-16T12:11:33.891Z,1097.00